createdAt,value
2017-08-02T00:00:19.171Z,18.02
2017-08-02T00:00:47.367Z,18.02
2017-08-02T00:01:15.397Z,17.95
2017-08-02T00:01:43.491Z,18.01
2017-08-02T00:02:11.680Z,17.88
2017-08-02T00:02:39.730Z,17.84
2017-08-02T00:03:07.941Z,17.77
2017-08-02T00:03:36.193Z,17.86
2017-08-02T00:04:04.208Z,17.9
2017-08-02T00:04:32.322Z,17.83
2017-08-02T00:05:00.522Z,17.8
2017-08-02T00:05:28.483Z,17.77
2017-08-02T00:05:56.716Z,17.66
2017-08-02T00:06:24.876Z,17.6
2017-08-02T00:06:53.041Z,17.69
2017-08-02T00:07:21.190Z,17.65
2017-08-02T00:07:49.496Z,17.52
2017-08-02T00:08:17.617Z,17.52
2017-08-02T00:08:45.767Z,17.54
2017-08-02T00:09:13.885Z,17.46
2017-08-02T00:09:42.044Z,17.39
2017-08-02T00:10:10.282Z,17.4
2017-08-02T00:10:38.432Z,17.43
2017-08-02T00:11:06.606Z,17.31
2017-08-02T00:11:34.704Z,17.28
2017-08-02T00:12:02.913Z,17.3
2017-08-02T00:12:31.126Z,17.35
2017-08-02T00:12:59.415Z,17.35
2017-08-02T00:13:27.631Z,17.36
2017-08-02T00:13:55.696Z,17.35
2017-08-02T00:14:23.923Z,17.35
2017-08-02T00:14:52.059Z,17.24
2017-08-02T00:15:20.194Z,17.24
2017-08-02T00:15:48.317Z,17.27
2017-08-02T00:16:16.398Z,17.22
2017-08-02T00:16:44.402Z,17.22
2017-08-02T00:17:12.606Z,17.1
2017-08-02T00:17:40.641Z,17.21
2017-08-02T00:18:08.846Z,17.15
2017-08-02T00:18:36.942Z,17.15
2017-08-02T00:19:04.948Z,17.17
2017-08-02T00:19:33.077Z,17.12
2017-08-02T00:20:01.065Z,17.07
2017-08-02T00:20:29.251Z,17.12
2017-08-02T00:20:57.431Z,17.13
2017-08-02T00:21:25.639Z,17.07
2017-08-02T00:21:53.847Z,17.15
2017-08-02T00:22:22.067Z,17.13
2017-08-02T00:22:50.239Z,17.13
2017-08-02T00:23:18.582Z,17.13
2017-08-02T00:23:46.664Z,17.13
2017-08-02T00:24:14.773Z,17.2
2017-08-02T00:24:42.813Z,17.17
2017-08-02T00:25:11.024Z,17.17
2017-08-02T00:25:39.151Z,17.07
2017-08-02T00:26:07.280Z,17.07
2017-08-02T00:26:35.297Z,17.09
2017-08-02T00:27:03.201Z,17.09
2017-08-02T00:27:31.340Z,17.06
2017-08-02T00:27:59.561Z,17.05
2017-08-02T00:28:27.747Z,17.09
2017-08-02T00:28:55.928Z,16.91
2017-08-02T00:29:24.038Z,16.9
2017-08-02T00:29:52.045Z,16.88
2017-08-02T00:30:20.142Z,16.92
2017-08-02T00:30:48.314Z,16.99
2017-08-02T00:31:16.376Z,16.91
2017-08-02T00:31:44.562Z,16.91
2017-08-02T00:32:12.524Z,16.97
2017-08-02T00:32:40.608Z,16.94
2017-08-02T00:33:08.718Z,16.94
2017-08-02T00:33:36.822Z,16.92
2017-08-02T00:34:04.946Z,17.06
2017-08-02T00:34:32.999Z,17.09
2017-08-02T00:35:01.023Z,16.99
2017-08-02T00:35:29.122Z,17.05
2017-08-02T00:35:57.129Z,17
2017-08-02T00:36:25.221Z,17.03
2017-08-02T00:36:53.370Z,17.02
2017-08-02T00:37:21.566Z,17.05
2017-08-02T00:37:49.774Z,17.03
2017-08-02T00:38:18.317Z,17.05
2017-08-02T00:38:46.513Z,17.09
2017-08-02T00:39:14.757Z,17.05
2017-08-02T00:39:42.926Z,17.07
2017-08-02T00:40:11.026Z,17.07
2017-08-02T00:40:39.159Z,17.05
2017-08-02T00:41:07.237Z,17.03
2017-08-02T00:41:35.265Z,17.07
2017-08-02T00:42:03.333Z,17.09
2017-08-02T00:42:31.519Z,17
2017-08-02T00:42:59.781Z,16.99
2017-08-02T00:43:27.882Z,17.03
2017-08-02T00:43:55.921Z,16.99
2017-08-02T00:44:24.099Z,17.05
2017-08-02T00:44:52.302Z,16.99
2017-08-02T00:45:20.388Z,17
2017-08-02T00:45:48.563Z,16.91
2017-08-02T00:46:16.684Z,16.95
2017-08-02T00:46:44.851Z,17.05
2017-08-02T00:47:12.996Z,16.88
2017-08-02T00:47:41.113Z,16.99
2017-08-02T00:48:09.281Z,16.9
2017-08-02T00:48:37.525Z,16.94
2017-08-02T00:49:05.620Z,16.9
2017-08-02T00:49:33.763Z,16.91
2017-08-02T00:50:02.009Z,16.91
2017-08-02T00:50:30.024Z,16.97
2017-08-02T00:50:58.061Z,16.94
2017-08-02T00:51:26.214Z,16.94
2017-08-02T00:51:54.235Z,16.91
2017-08-02T00:52:22.457Z,16.97
2017-08-02T00:52:50.633Z,17.05
2017-08-02T00:53:18.859Z,17.02
2017-08-02T00:53:47.149Z,17.02
2017-08-02T00:54:15.332Z,17
2017-08-02T00:54:43.431Z,17.03
2017-08-02T00:55:11.435Z,17.06
2017-08-02T00:55:39.515Z,17.06
2017-08-02T00:56:07.681Z,17.05
2017-08-02T00:56:35.672Z,17.13
2017-08-02T00:57:03.873Z,17.07
2017-08-02T00:57:31.983Z,17.05
2017-08-02T00:57:59.967Z,17.09
2017-08-02T00:58:28.245Z,17.05
2017-08-02T00:58:56.455Z,17.07
2017-08-02T00:59:24.556Z,17.05
2017-08-02T00:59:52.766Z,17.05
2017-08-02T01:00:20.942Z,17.07
2017-08-02T01:00:49.071Z,17.07
2017-08-02T01:01:17.166Z,17.06
2017-08-02T01:01:45.202Z,17.07
2017-08-02T01:02:13.387Z,17.05
2017-08-02T01:02:41.396Z,17.07
2017-08-02T01:03:09.554Z,17.12
2017-08-02T01:03:37.666Z,17.05
2017-08-02T01:04:05.644Z,17.05
2017-08-02T01:04:33.759Z,17.12
2017-08-02T01:05:01.870Z,17.06
2017-08-02T01:05:30.024Z,17.12
2017-08-02T01:05:58.309Z,17.03
2017-08-02T01:06:26.376Z,17.1
2017-08-02T01:06:54.557Z,17.12
2017-08-02T01:07:22.761Z,17.12
2017-08-02T01:07:50.775Z,17.07
2017-08-02T01:08:18.978Z,17.1
2017-08-02T01:08:47.279Z,17.12
2017-08-02T01:09:15.435Z,17.07
2017-08-02T01:09:43.660Z,17.06
2017-08-02T01:10:11.754Z,17.07
2017-08-02T01:10:39.953Z,17.06
2017-08-02T01:11:08.116Z,17.03
2017-08-02T01:11:36.336Z,17.06
2017-08-02T01:12:04.489Z,17.03
2017-08-02T01:12:32.557Z,17.09
2017-08-02T01:13:00.768Z,17
2017-08-02T01:13:28.965Z,17.02
2017-08-02T01:13:57.169Z,17.09
2017-08-02T01:14:25.277Z,17.06
2017-08-02T01:14:53.472Z,17.02
2017-08-02T01:15:21.640Z,17
2017-08-02T01:15:49.803Z,16.99
2017-08-02T01:16:17.798Z,17.05
2017-08-02T01:16:46.041Z,17
2017-08-02T01:17:14.226Z,17.03
2017-08-02T01:17:42.434Z,17.07
2017-08-02T01:18:10.531Z,17.02
2017-08-02T01:18:38.639Z,17.02
2017-08-02T01:19:06.878Z,17
2017-08-02T01:19:35.060Z,16.94
2017-08-02T01:20:03.136Z,17.07
2017-08-02T01:20:31.175Z,17.1
2017-08-02T01:20:59.403Z,17.06
2017-08-02T01:21:27.505Z,17.07
2017-08-02T01:21:55.602Z,16.99
2017-08-02T01:22:23.731Z,17.05
2017-08-02T01:22:51.766Z,17.02
2017-08-02T01:23:19.906Z,17.06
2017-08-02T01:23:48.072Z,17.07
2017-08-02T01:24:16.176Z,17.12
2017-08-02T01:24:44.300Z,17.18
2017-08-02T01:25:12.316Z,17.17
2017-08-02T01:25:40.499Z,17.15
2017-08-02T01:26:08.622Z,17.18
2017-08-02T01:26:36.703Z,17.12
2017-08-02T01:27:04.810Z,17.18
2017-08-02T01:27:33.013Z,17.2
2017-08-02T01:28:01.165Z,17.15
2017-08-02T01:28:29.350Z,17.13
2017-08-02T01:28:57.620Z,17.12
2017-08-02T01:29:25.778Z,17.12
2017-08-02T01:29:53.988Z,17.07
2017-08-02T01:30:22.180Z,17.12
2017-08-02T01:30:50.321Z,17.1
2017-08-02T01:31:18.451Z,17.07
2017-08-02T01:31:46.547Z,17.02
2017-08-02T01:32:14.719Z,17.05
2017-08-02T01:32:42.745Z,17
2017-08-02T01:33:10.962Z,17.1
2017-08-02T01:33:39.170Z,17.09
2017-08-02T01:34:07.425Z,17.07
2017-08-02T01:34:35.611Z,16.91
2017-08-02T01:35:03.862Z,16.91
2017-08-02T01:35:32.003Z,16.9
2017-08-02T01:36:00.002Z,17
2017-08-02T01:36:28.166Z,16.94
2017-08-02T01:36:56.186Z,16.94
2017-08-02T01:37:24.371Z,17
2017-08-02T01:37:52.567Z,17.02
2017-08-02T01:38:20.830Z,16.99
2017-08-02T01:38:48.940Z,16.91
2017-08-02T01:39:17.060Z,16.95
2017-08-02T01:39:45.140Z,16.97
2017-08-02T01:40:13.336Z,16.95
2017-08-02T01:40:41.442Z,16.97
2017-08-02T01:41:09.656Z,16.91
2017-08-02T01:41:37.760Z,16.95
2017-08-02T01:42:05.785Z,17
2017-08-02T01:42:33.842Z,16.94
2017-08-02T01:43:01.837Z,16.95
2017-08-02T01:43:29.955Z,16.92
2017-08-02T01:43:58.444Z,16.94
2017-08-02T01:44:26.679Z,16.87
2017-08-02T01:44:54.885Z,16.97
2017-08-02T01:45:23.060Z,16.9
2017-08-02T01:45:51.114Z,16.94
2017-08-02T01:46:19.282Z,16.97
2017-08-02T01:46:47.482Z,16.97
2017-08-02T01:47:15.519Z,16.91
2017-08-02T01:47:43.627Z,16.97
2017-08-02T01:48:11.703Z,16.97
2017-08-02T01:48:39.888Z,16.97
2017-08-02T01:49:08.154Z,16.91
2017-08-02T01:49:36.324Z,16.9
2017-08-02T01:50:04.280Z,16.92
2017-08-02T01:50:32.377Z,16.95
2017-08-02T01:51:00.363Z,17.03
2017-08-02T01:51:28.557Z,16.94
2017-08-02T01:51:56.616Z,17.03
2017-08-02T01:52:24.843Z,16.91
2017-08-02T01:52:52.851Z,16.95
2017-08-02T01:53:20.952Z,16.9
2017-08-02T01:53:49.066Z,16.88
2017-08-02T01:54:17.145Z,16.88
2017-08-02T01:54:45.288Z,16.92
2017-08-02T01:55:13.396Z,16.91
2017-08-02T01:55:41.657Z,16.94
2017-08-02T01:56:09.903Z,16.91
2017-08-02T01:56:38.083Z,16.87
2017-08-02T01:57:06.284Z,16.95
2017-08-02T01:57:34.373Z,16.88
2017-08-02T01:58:02.479Z,16.9
2017-08-02T01:58:30.560Z,16.91
2017-08-02T01:59:30.451Z,16.88
2017-08-02T01:59:58.456Z,16.88
2017-08-02T02:00:26.666Z,16.87
2017-08-02T02:00:54.847Z,16.88
2017-08-02T02:01:22.947Z,16.94
2017-08-02T02:01:51.090Z,16.85
2017-08-02T02:02:19.288Z,16.91
2017-08-02T02:02:47.538Z,16.92
2017-08-02T02:03:15.749Z,16.94
2017-08-02T02:03:43.649Z,16.91
2017-08-02T02:04:11.806Z,16.85
2017-08-02T02:04:40.101Z,16.92
2017-08-02T02:05:08.109Z,16.87
2017-08-02T02:05:36.250Z,16.9
2017-08-02T02:06:04.442Z,16.94
2017-08-02T02:06:32.648Z,16.9
2017-08-02T02:07:00.569Z,16.84
2017-08-02T02:07:28.683Z,16.84
2017-08-02T02:07:56.855Z,16.84
2017-08-02T02:08:24.937Z,16.85
2017-08-02T02:08:53.150Z,16.88
2017-08-02T02:09:21.297Z,16.82
2017-08-02T02:09:49.510Z,16.82
2017-08-02T02:10:17.643Z,16.9
2017-08-02T02:10:45.854Z,16.91
2017-08-02T02:11:14.041Z,16.87
2017-08-02T02:11:42.107Z,16.82
2017-08-02T02:12:10.185Z,16.91
2017-08-02T02:12:38.395Z,16.81
2017-08-02T02:13:06.551Z,16.91
2017-08-02T02:13:34.748Z,16.87
2017-08-02T02:14:02.913Z,16.9
2017-08-02T02:14:31.072Z,16.81
2017-08-02T02:14:59.295Z,16.88
2017-08-02T02:15:27.521Z,16.91
2017-08-02T02:15:55.645Z,16.77
2017-08-02T02:16:23.777Z,16.88
2017-08-02T02:16:51.842Z,16.9
2017-08-02T02:17:20.025Z,16.77
2017-08-02T02:17:48.198Z,16.8
2017-08-02T02:18:16.181Z,16.81
2017-08-02T02:18:44.278Z,16.82
2017-08-02T02:19:12.429Z,16.87
2017-08-02T02:19:40.759Z,16.8
2017-08-02T02:20:08.951Z,16.84
2017-08-02T02:20:36.878Z,16.87
2017-08-02T02:21:04.908Z,16.77
2017-08-02T02:21:33.106Z,16.77
2017-08-02T02:22:01.220Z,16.76
2017-08-02T02:22:29.253Z,16.81
2017-08-02T02:22:57.465Z,16.76
2017-08-02T02:23:25.570Z,16.76
2017-08-02T02:23:53.797Z,16.73
2017-08-02T02:24:22.070Z,16.81
2017-08-02T02:24:50.332Z,16.77
2017-08-02T02:25:18.432Z,16.8
2017-08-02T02:25:46.588Z,16.88
2017-08-02T02:26:14.592Z,16.82
2017-08-02T02:26:42.706Z,16.84
2017-08-02T02:27:10.809Z,16.82
2017-08-02T02:27:38.804Z,16.9
2017-08-02T02:28:06.937Z,16.77
2017-08-02T02:28:35.011Z,16.8
2017-08-02T02:29:03.235Z,16.85
2017-08-02T02:29:31.251Z,16.77
2017-08-02T02:29:59.506Z,16.76
2017-08-02T02:30:27.690Z,16.74
2017-08-02T02:30:55.835Z,16.82
2017-08-02T02:31:23.852Z,16.76
2017-08-02T02:31:52.023Z,16.74
2017-08-02T02:32:20.018Z,16.84
2017-08-02T02:32:48.068Z,16.8
2017-08-02T02:33:16.140Z,16.8
2017-08-02T02:33:44.145Z,16.7
2017-08-02T02:34:12.248Z,16.74
2017-08-02T02:34:40.269Z,16.73
2017-08-02T02:35:08.450Z,16.76
2017-08-02T02:35:36.635Z,16.67
2017-08-02T02:36:04.843Z,16.74
2017-08-02T02:36:33.029Z,16.65
2017-08-02T02:37:01.127Z,16.72
2017-08-02T02:37:29.347Z,16.65
2017-08-02T02:37:57.430Z,16.63
2017-08-02T02:38:25.634Z,16.69
2017-08-02T02:38:53.752Z,16.77
2017-08-02T02:39:21.883Z,16.7
2017-08-02T02:39:49.933Z,16.7
2017-08-02T02:40:18.245Z,16.73
2017-08-02T02:40:46.430Z,16.72
2017-08-02T02:41:14.576Z,16.7
2017-08-02T02:41:42.776Z,16.73
2017-08-02T02:42:10.970Z,16.7
2017-08-02T02:42:39.019Z,16.69
2017-08-02T02:43:07.163Z,16.73
2017-08-02T02:43:35.242Z,16.69
2017-08-02T02:44:03.347Z,16.76
2017-08-02T02:44:31.549Z,16.7
2017-08-02T02:44:59.896Z,16.72
2017-08-02T02:45:28.019Z,16.69
2017-08-02T02:45:55.994Z,16.69
2017-08-02T02:46:24.167Z,16.7
2017-08-02T02:46:52.362Z,16.66
2017-08-02T02:47:20.497Z,16.7
2017-08-02T02:47:48.722Z,16.67
2017-08-02T02:48:16.855Z,16.74
2017-08-02T02:48:44.958Z,16.59
2017-08-02T02:49:13.099Z,16.74
2017-08-02T02:49:41.313Z,16.65
2017-08-02T02:50:09.444Z,16.73
2017-08-02T02:50:37.612Z,16.72
2017-08-02T02:51:05.678Z,16.66
2017-08-02T02:51:33.861Z,16.72
2017-08-02T02:52:01.969Z,16.62
2017-08-02T02:52:30.059Z,16.62
2017-08-02T02:52:58.160Z,16.63
2017-08-02T02:53:26.333Z,16.59
2017-08-02T02:53:54.440Z,16.62
2017-08-02T02:54:22.635Z,16.63
2017-08-02T02:54:50.859Z,16.62
2017-08-02T02:55:19.181Z,16.62
2017-08-02T02:55:47.425Z,16.62
2017-08-02T02:56:15.514Z,16.55
2017-08-02T02:56:43.701Z,16.65
2017-08-02T02:57:11.593Z,16.62
2017-08-02T02:57:39.592Z,16.65
2017-08-02T02:58:07.631Z,16.54
2017-08-02T02:58:35.775Z,16.57
2017-08-02T02:59:04.017Z,16.54
2017-08-02T02:59:32.167Z,16.55
2017-08-02T03:00:00.365Z,16.59
2017-08-02T03:00:28.630Z,16.58
2017-08-02T03:00:56.825Z,16.54
2017-08-02T03:01:24.855Z,16.63
2017-08-02T03:01:53.058Z,16.58
2017-08-02T03:02:20.951Z,16.59
2017-08-02T03:02:49.027Z,16.67
2017-08-02T03:03:17.229Z,16.63
2017-08-02T03:03:45.444Z,16.63
2017-08-02T03:04:13.411Z,16.62
2017-08-02T03:04:41.617Z,16.69
2017-08-02T03:05:09.818Z,16.66
2017-08-02T03:05:38.086Z,16.62
2017-08-02T03:06:06.290Z,16.62
2017-08-02T03:06:34.479Z,16.65
2017-08-02T03:07:02.693Z,16.69
2017-08-02T03:07:30.786Z,16.58
2017-08-02T03:07:58.896Z,16.59
2017-08-02T03:08:27.097Z,16.62
2017-08-02T03:08:55.316Z,16.66
2017-08-02T03:09:23.407Z,16.66
2017-08-02T03:09:51.405Z,16.54
2017-08-02T03:10:19.521Z,16.59
2017-08-02T03:10:47.649Z,16.59
2017-08-02T03:11:15.743Z,16.52
2017-08-02T03:11:43.718Z,16.57
2017-08-02T03:12:11.825Z,16.51
2017-08-02T03:12:39.998Z,16.55
2017-08-02T03:13:07.985Z,16.48
2017-08-02T03:13:36.227Z,16.52
2017-08-02T03:14:04.308Z,16.42
2017-08-02T03:14:32.518Z,16.4
2017-08-02T03:15:00.701Z,16.44
2017-08-02T03:15:28.880Z,16.44
2017-08-02T03:15:57.012Z,16.39
2017-08-02T03:16:25.149Z,16.33
2017-08-02T03:16:53.248Z,16.39
2017-08-02T03:17:21.460Z,16.4
2017-08-02T03:17:49.540Z,16.36
2017-08-02T03:18:17.676Z,16.42
2017-08-02T03:18:45.829Z,16.34
2017-08-02T03:19:13.955Z,16.33
2017-08-02T03:19:42.072Z,16.32
2017-08-02T03:20:10.174Z,16.29
2017-08-02T03:20:38.405Z,16.27
2017-08-02T03:21:06.590Z,16.26
2017-08-02T03:21:34.789Z,16.25
2017-08-02T03:22:02.976Z,16.22
2017-08-02T03:22:31.224Z,16.22
2017-08-02T03:22:59.426Z,16.26
2017-08-02T03:23:27.604Z,16.18
2017-08-02T03:23:55.797Z,16.22
2017-08-02T03:24:23.864Z,16.16
2017-08-02T03:24:52.042Z,16.1
2017-08-02T03:25:20.090Z,16.1
2017-08-02T03:25:48.382Z,16.13
2017-08-02T03:26:16.530Z,16.16
2017-08-02T03:26:44.727Z,16.16
2017-08-02T03:27:12.855Z,16.16
2017-08-02T03:27:40.988Z,16.1
2017-08-02T03:28:09.098Z,16.11
2017-08-02T03:28:37.318Z,16.14
2017-08-02T03:29:05.508Z,16.14
2017-08-02T03:29:33.505Z,16.21
2017-08-02T03:30:01.537Z,16.22
2017-08-02T03:30:29.758Z,16.17
2017-08-02T03:30:57.853Z,16.17
2017-08-02T03:31:26.042Z,16.22
2017-08-02T03:31:54.309Z,16.18
2017-08-02T03:32:22.346Z,16.16
2017-08-02T03:32:50.361Z,16.27
2017-08-02T03:33:18.565Z,16.22
2017-08-02T03:33:46.726Z,16.25
2017-08-02T03:34:14.788Z,16.25
2017-08-02T03:34:42.940Z,16.25
2017-08-02T03:35:11.088Z,16.18
2017-08-02T03:35:39.271Z,16.13
2017-08-02T03:36:07.458Z,16.33
2017-08-02T03:36:35.642Z,16.27
2017-08-02T03:37:03.842Z,16.4
2017-08-02T03:37:31.976Z,16.42
2017-08-02T03:38:00.104Z,16.42
2017-08-02T03:38:28.296Z,16.45
2017-08-02T03:38:56.418Z,16.47
2017-08-02T03:39:24.567Z,16.52
2017-08-02T03:39:52.737Z,16.45
2017-08-02T03:40:20.935Z,16.49
2017-08-02T03:40:49.115Z,16.49
2017-08-02T03:41:17.226Z,16.51
2017-08-02T03:41:45.440Z,16.55
2017-08-02T03:42:13.513Z,16.54
2017-08-02T03:42:41.705Z,16.51
2017-08-02T03:43:09.908Z,16.49
2017-08-02T03:43:38.026Z,16.48
2017-08-02T03:44:06.105Z,16.52
2017-08-02T03:44:34.314Z,16.36
2017-08-02T03:45:02.547Z,16.42
2017-08-02T03:45:30.652Z,16.39
2017-08-02T03:45:58.795Z,16.45
2017-08-02T03:46:26.924Z,16.36
2017-08-02T03:46:55.008Z,16.37
2017-08-02T03:47:23.087Z,16.42
2017-08-02T03:47:51.280Z,16.37
2017-08-02T03:48:19.384Z,16.33
2017-08-02T03:48:47.546Z,16.33
2017-08-02T03:49:15.756Z,16.29
2017-08-02T03:49:43.950Z,16.32
2017-08-02T03:50:12.174Z,16.34
2017-08-02T03:50:40.202Z,16.29
2017-08-02T03:51:08.457Z,16.27
2017-08-02T03:51:36.646Z,16.32
2017-08-02T03:52:04.648Z,16.26
2017-08-02T03:52:32.839Z,16.27
2017-08-02T03:53:01.013Z,16.37
2017-08-02T03:53:29.257Z,16.4
2017-08-02T03:53:57.439Z,16.39
2017-08-02T03:54:25.533Z,16.39
2017-08-02T03:54:53.751Z,16.4
2017-08-02T03:55:21.802Z,16.44
2017-08-02T03:55:50.055Z,16.52
2017-08-02T03:56:18.183Z,16.51
2017-08-02T03:56:46.407Z,16.48
2017-08-02T03:57:14.580Z,16.51
2017-08-02T03:57:42.675Z,16.52
2017-08-02T03:58:10.897Z,16.54
2017-08-02T03:58:39.065Z,16.52
2017-08-02T03:59:07.200Z,16.54
2017-08-02T03:59:35.300Z,16.59
2017-08-02T04:00:03.470Z,16.54
2017-08-02T04:00:31.701Z,16.52
2017-08-02T04:01:00.016Z,16.57
2017-08-02T04:01:28.026Z,16.54
2017-08-02T04:01:56.118Z,16.54
2017-08-02T04:02:24.327Z,16.48
2017-08-02T04:02:52.313Z,16.55
2017-08-02T04:03:20.489Z,16.51
2017-08-02T04:03:48.610Z,16.55
2017-08-02T04:04:16.672Z,16.52
2017-08-02T04:04:44.944Z,16.55
2017-08-02T04:05:13.152Z,16.54
2017-08-02T04:05:41.246Z,16.54
2017-08-02T04:06:09.566Z,16.55
2017-08-02T04:06:37.560Z,16.52
2017-08-02T04:07:05.725Z,16.52
2017-08-02T04:07:33.821Z,16.52
2017-08-02T04:08:02.072Z,16.49
2017-08-02T04:08:30.289Z,16.55
2017-08-02T04:08:58.288Z,16.52
2017-08-02T04:09:26.478Z,16.57
2017-08-02T04:09:54.591Z,16.55
2017-08-02T04:10:22.689Z,16.65
2017-08-02T04:10:50.780Z,16.58
2017-08-02T04:11:19.092Z,16.73
2017-08-02T04:11:47.171Z,16.73
2017-08-02T04:12:15.203Z,16.74
2017-08-02T04:12:43.404Z,16.69
2017-08-02T04:13:11.443Z,16.7
2017-08-02T04:13:39.534Z,16.76
2017-08-02T04:14:07.684Z,16.81
2017-08-02T04:14:35.655Z,16.81
2017-08-02T04:15:03.855Z,16.81
2017-08-02T04:15:31.955Z,16.82
2017-08-02T04:16:00.304Z,16.76
2017-08-02T04:16:28.424Z,16.94
2017-08-02T04:16:56.434Z,16.9
2017-08-02T04:17:24.671Z,16.99
2017-08-02T04:17:52.785Z,16.94
2017-08-02T04:18:20.899Z,17.07
2017-08-02T04:18:49.070Z,17.1
2017-08-02T04:19:17.152Z,17.09
2017-08-02T04:19:45.338Z,17.13
2017-08-02T04:20:13.346Z,17.09
2017-08-02T04:20:41.523Z,17.06
2017-08-02T04:21:09.624Z,17.09
2017-08-02T04:21:37.837Z,17.09
2017-08-02T04:22:05.908Z,17.06
2017-08-02T04:22:34.036Z,17.05
2017-08-02T04:23:02.116Z,17.1
2017-08-02T04:23:30.366Z,17.07
2017-08-02T04:23:58.444Z,17.1
2017-08-02T04:24:26.570Z,17.09
2017-08-02T04:24:54.683Z,17.09
2017-08-02T04:25:22.734Z,17.1
2017-08-02T04:25:50.759Z,17.06
2017-08-02T04:26:19.042Z,17.17
2017-08-02T04:26:47.128Z,17.13
2017-08-02T04:27:15.220Z,17.13
2017-08-02T04:27:43.337Z,17.17
2017-08-02T04:28:11.248Z,17.13
2017-08-02T04:28:39.422Z,17.17
2017-08-02T04:29:07.576Z,17.15
2017-08-02T04:29:35.731Z,17.17
2017-08-02T04:30:03.851Z,17.18
2017-08-02T04:30:31.955Z,17.21
2017-08-02T04:31:00.107Z,17.15
2017-08-02T04:31:28.344Z,17.22
2017-08-02T04:31:56.512Z,17.22
2017-08-02T04:32:24.644Z,17.22
2017-08-02T04:32:52.864Z,17.22
2017-08-02T04:33:21.080Z,17.18
2017-08-02T04:33:49.236Z,17.1
2017-08-02T04:34:17.323Z,17.1
2017-08-02T04:34:45.456Z,17.09
2017-08-02T04:35:13.674Z,17.1
2017-08-02T04:35:41.869Z,17.07
2017-08-02T04:36:10.132Z,17.07
2017-08-02T04:36:38.290Z,17.12
2017-08-02T04:37:06.316Z,17.07
2017-08-02T04:37:34.451Z,17.07
2017-08-02T04:38:02.600Z,17.1
2017-08-02T04:38:30.495Z,17.09
2017-08-02T04:38:58.737Z,17.1
2017-08-02T04:39:26.762Z,17.07
2017-08-02T04:39:54.992Z,17.12
2017-08-02T04:40:23.065Z,17.12
2017-08-02T04:40:51.240Z,17.09
2017-08-02T04:41:19.370Z,17.13
2017-08-02T04:41:47.540Z,17.03
2017-08-02T04:42:15.760Z,17.06
2017-08-02T04:42:43.768Z,17.05
2017-08-02T04:43:11.790Z,17.02
2017-08-02T04:43:39.873Z,17.07
2017-08-02T04:44:08.138Z,17
2017-08-02T04:44:36.298Z,16.9
2017-08-02T04:45:04.330Z,16.95
2017-08-02T04:45:32.389Z,16.94
2017-08-02T04:46:00.562Z,16.95
2017-08-02T04:46:28.803Z,16.91
2017-08-02T04:46:56.920Z,16.94
2017-08-02T04:47:25.017Z,16.97
2017-08-02T04:47:53.095Z,16.9
2017-08-02T04:48:21.323Z,16.95
2017-08-02T04:48:49.481Z,16.94
2017-08-02T04:49:17.688Z,16.91
2017-08-02T04:49:45.860Z,16.97
2017-08-02T04:50:13.928Z,17
2017-08-02T04:50:42.164Z,17.02
2017-08-02T04:51:10.281Z,17
2017-08-02T04:51:38.607Z,17.1
2017-08-02T04:52:06.780Z,17.07
2017-08-02T04:52:34.925Z,17.07
2017-08-02T04:53:03.057Z,17.06
2017-08-02T04:53:31.263Z,17.1
2017-08-02T04:53:59.269Z,17.12
2017-08-02T04:54:27.261Z,17.1
2017-08-02T04:54:55.347Z,17.05
2017-08-02T04:55:23.436Z,17.03
2017-08-02T04:55:51.508Z,16.97
2017-08-02T04:56:19.717Z,17.06
2017-08-02T04:56:47.943Z,16.91
2017-08-02T04:57:16.098Z,16.9
2017-08-02T04:57:44.205Z,16.88
2017-08-02T04:58:12.416Z,16.91
2017-08-02T04:58:40.440Z,16.97
2017-08-02T04:59:08.557Z,16.92
2017-08-02T04:59:36.557Z,16.97
2017-08-02T05:00:04.636Z,16.99
2017-08-02T05:00:32.714Z,16.94
2017-08-02T05:01:00.791Z,16.87
2017-08-02T05:01:29.086Z,16.87
2017-08-02T05:01:57.245Z,16.97
2017-08-02T05:02:25.414Z,16.99
2017-08-02T05:02:53.620Z,16.94
2017-08-02T05:03:21.723Z,16.9
2017-08-02T05:03:49.799Z,16.95
2017-08-02T05:04:17.880Z,16.91
2017-08-02T05:04:46.069Z,16.91
2017-08-02T05:05:14.150Z,16.87
2017-08-02T05:05:42.250Z,16.84
2017-08-02T05:06:10.371Z,16.81
2017-08-02T05:06:38.713Z,16.81
2017-08-02T05:07:06.818Z,16.8
2017-08-02T05:07:34.847Z,16.67
2017-08-02T05:08:02.876Z,16.63
2017-08-02T05:08:31.016Z,16.72
2017-08-02T05:08:59.104Z,16.7
2017-08-02T05:09:27.209Z,16.67
2017-08-02T05:09:55.302Z,16.59
2017-08-02T05:10:23.428Z,16.62
2017-08-02T05:10:51.531Z,16.58
2017-08-02T05:11:19.746Z,16.58
2017-08-02T05:11:47.768Z,16.57
2017-08-02T05:12:15.982Z,16.54
2017-08-02T05:12:44.100Z,16.44
2017-08-02T05:13:12.040Z,16.54
2017-08-02T05:13:40.121Z,16.39
2017-08-02T05:14:08.109Z,16.36
2017-08-02T05:14:36.279Z,16.39
2017-08-02T05:15:04.484Z,16.34
2017-08-02T05:15:32.590Z,16.34
2017-08-02T05:16:00.802Z,16.32
2017-08-02T05:16:28.910Z,16.3
2017-08-02T05:16:57.219Z,16.26
2017-08-02T05:17:25.238Z,16.27
2017-08-02T05:17:53.302Z,16.14
2017-08-02T05:18:21.449Z,16.21
2017-08-02T05:18:49.617Z,16.25
2017-08-02T05:19:17.843Z,16.13
2017-08-02T05:19:46.039Z,16.08
2017-08-02T05:20:14.202Z,16.11
2017-08-02T05:20:42.293Z,16.18
2017-08-02T05:21:10.499Z,16.17
2017-08-02T05:21:38.608Z,16.08
2017-08-02T05:22:06.854Z,16.14
2017-08-02T05:22:34.961Z,16.07
2017-08-02T05:23:03.148Z,16.02
2017-08-02T05:23:31.159Z,16.11
2017-08-02T05:23:59.144Z,16.04
2017-08-02T05:24:27.293Z,16.08
2017-08-02T05:24:55.540Z,16.08
2017-08-02T05:25:23.637Z,16.07
2017-08-02T05:25:51.618Z,16.1
2017-08-02T05:26:19.821Z,16.1
2017-08-02T05:26:47.904Z,16.18
2017-08-02T05:27:15.972Z,16.17
2017-08-02T05:27:44.106Z,16.33
2017-08-02T05:28:12.126Z,16.42
2017-08-02T05:28:40.196Z,16.37
2017-08-02T05:29:08.275Z,16.47
2017-08-02T05:29:36.379Z,16.57
2017-08-02T05:30:04.562Z,16.58
2017-08-02T05:30:32.655Z,16.62
2017-08-02T05:31:00.819Z,16.66
2017-08-02T05:31:28.915Z,16.66
2017-08-02T05:31:57.109Z,16.62
2017-08-02T05:32:25.193Z,16.72
2017-08-02T05:32:53.304Z,16.59
2017-08-02T05:33:21.426Z,16.72
2017-08-02T05:33:49.542Z,16.63
2017-08-02T05:34:17.653Z,16.7
2017-08-02T05:34:45.669Z,16.73
2017-08-02T05:35:13.730Z,16.72
2017-08-02T05:35:41.863Z,16.72
2017-08-02T05:36:10.010Z,16.66
2017-08-02T05:36:38.038Z,16.67
2017-08-02T05:37:06.231Z,16.63
2017-08-02T05:37:34.344Z,16.65
2017-08-02T05:38:02.541Z,16.57
2017-08-02T05:38:30.773Z,16.58
2017-08-02T05:38:58.943Z,16.52
2017-08-02T05:39:27.147Z,16.49
2017-08-02T05:39:55.258Z,16.51
2017-08-02T05:40:23.459Z,16.55
2017-08-02T05:40:51.546Z,16.55
2017-08-02T05:41:19.721Z,16.57
2017-08-02T05:41:47.910Z,16.65
2017-08-02T05:42:16.248Z,16.69
2017-08-02T05:42:44.385Z,16.7
2017-08-02T05:43:12.580Z,16.77
2017-08-02T05:43:40.799Z,16.69
2017-08-02T05:44:08.937Z,16.74
2017-08-02T05:44:37.187Z,16.73
2017-08-02T05:45:05.446Z,16.77
2017-08-02T05:45:33.703Z,16.74
2017-08-02T05:46:01.844Z,16.74
2017-08-02T05:46:29.778Z,16.7
2017-08-02T05:46:57.839Z,16.73
2017-08-02T05:47:25.969Z,16.76
2017-08-02T05:47:54.151Z,16.84
2017-08-02T05:48:22.292Z,16.87
2017-08-02T05:48:50.343Z,16.92
2017-08-02T05:49:18.588Z,16.88
2017-08-02T05:49:46.801Z,16.97
2017-08-02T05:50:15.036Z,16.97
2017-08-02T05:50:43.168Z,16.99
2017-08-02T05:51:11.375Z,16.94
2017-08-02T05:51:39.665Z,16.94
2017-08-02T05:52:07.793Z,16.88
2017-08-02T05:52:36.069Z,16.9
2017-08-02T05:53:04.273Z,16.91
2017-08-02T05:53:32.456Z,16.87
2017-08-02T05:54:00.526Z,16.9
2017-08-02T05:54:28.591Z,16.85
2017-08-02T05:54:56.815Z,16.91
2017-08-02T05:55:25.023Z,16.9
2017-08-02T05:55:53.144Z,16.77
2017-08-02T05:56:21.220Z,16.87
2017-08-02T05:56:49.231Z,16.76
2017-08-02T05:57:17.351Z,16.82
2017-08-02T05:57:45.510Z,16.76
2017-08-02T05:58:13.522Z,16.67
2017-08-02T05:58:41.620Z,16.76
2017-08-02T05:59:09.761Z,16.74
2017-08-02T05:59:37.890Z,16.67
2017-08-02T06:00:06.121Z,16.72
2017-08-02T06:00:34.375Z,16.73
2017-08-02T06:01:02.579Z,16.73
2017-08-02T06:01:30.814Z,16.76
2017-08-02T06:01:59.003Z,16.57
2017-08-02T06:02:27.316Z,16.63
2017-08-02T06:02:55.382Z,16.65
2017-08-02T06:03:23.585Z,16.63
2017-08-02T06:03:51.701Z,16.65
2017-08-02T06:04:19.908Z,16.63
2017-08-02T06:04:48.014Z,16.57